createdAt,value
2019-04-26T00:00:03.558Z,2.14
2019-04-26T00:01:02.659Z,2.2
2019-04-26T00:02:03.012Z,1.91
2019-04-26T00:03:02.870Z,1.66
2019-04-26T00:04:03.740Z,1.96
2019-04-26T00:05:03.679Z,2.06
2019-04-26T00:06:03.525Z,2.02
2019-04-26T00:07:03.901Z,2.38
2019-04-26T00:08:03.422Z,2.49
2019-04-26T00:09:03.905Z,2.16
2019-04-26T00:10:03.615Z,1.81
2019-04-26T00:11:03.459Z,1.77
2019-04-26T00:12:03.519Z,1.77
2019-04-26T00:13:36.128Z,2.2
2019-04-26T00:14:03.194Z,2.12
2019-04-26T00:15:03.781Z,2.12
2019-04-26T00:16:03.189Z,1.78
2019-04-26T00:17:03.809Z,1.78
2019-04-26T00:18:03.483Z,1.86
2019-04-26T00:19:03.465Z,1.55
2019-04-26T00:20:03.244Z,1.51
2019-04-26T00:21:02.910Z,1.22
2019-04-26T00:22:03.231Z,1.46
2019-04-26T00:23:02.887Z,1.54
2019-04-26T00:24:03.042Z,1.92
2019-04-26T00:25:02.915Z,1.87
2019-04-26T00:26:03.338Z,2.02
2019-04-26T00:27:03.217Z,1.62
2019-04-26T00:28:03.196Z,1.26
2019-04-26T00:29:02.913Z,1.36
2019-04-26T00:30:03.281Z,1.49
2019-04-26T00:31:03.031Z,2.03
2019-04-26T00:32:02.673Z,1.84
2019-04-26T00:33:03.155Z,1.84
2019-04-26T00:34:03.075Z,2.05
2019-04-26T00:35:03.180Z,1.56
2019-04-26T00:36:02.985Z,2.03
2019-04-26T00:37:02.935Z,1.74
2019-04-26T00:38:03.081Z,1.62
2019-04-26T00:39:03.136Z,1.48
2019-04-26T00:40:03.008Z,1.49
2019-04-26T00:41:03.643Z,1.65
2019-04-26T00:42:03.698Z,1.92
2019-04-26T00:43:03.656Z,1.67
2019-04-26T00:44:03.561Z,2.09
2019-04-26T00:45:03.522Z,1.38
2019-04-26T00:46:03.627Z,1.7
2019-04-26T00:47:03.257Z,1.45
2019-04-26T00:48:03.539Z,1.37
2019-04-26T00:49:03.315Z,1.56
2019-04-26T00:50:03.643Z,1.62
2019-04-26T00:51:03.714Z,1.54
2019-04-26T00:52:03.289Z,1.69
2019-04-26T00:53:03.115Z,1.98
2019-04-26T00:54:03.093Z,1.52
2019-04-26T00:55:03.339Z,1.64
2019-04-26T00:56:02.823Z,1.82
2019-04-26T00:57:03.068Z,1.48
2019-04-26T00:58:03.629Z,1.4
2019-04-26T00:59:03.028Z,1.64
2019-04-26T01:00:03.083Z,1.64
2019-04-26T01:01:02.810Z,1.48
2019-04-26T01:02:03.582Z,1.48
2019-04-26T01:03:02.684Z,1.66
2019-04-26T01:04:03.289Z,1.66
2019-04-26T01:05:03.030Z,2.21
2019-04-26T01:06:02.909Z,1.97
2019-04-26T01:07:02.792Z,1.97
2019-04-26T01:08:02.701Z,1.78
2019-04-26T01:09:02.663Z,1.9
2019-04-26T01:10:02.769Z,1.58
2019-04-26T01:11:03.968Z,1.84
2019-04-26T01:12:03.571Z,1.73
2019-04-26T01:13:03.351Z,1.32
2019-04-26T01:14:03.412Z,1.73
2019-04-26T01:15:03.646Z,1.84
2019-04-26T01:16:01.942Z,1.66
2019-04-26T01:17:03.468Z,2.24
2019-04-26T01:18:03.413Z,1.69
2019-04-26T01:19:03.255Z,1.5
2019-04-26T01:20:03.501Z,1.65
2019-04-26T01:21:03.221Z,1.35
2019-04-26T01:22:03.271Z,1.46
2019-04-26T01:23:03.063Z,1.64
2019-04-26T01:24:03.125Z,1.74
2019-04-26T01:25:02.888Z,1.65
2019-04-26T01:26:03.100Z,1.38
2019-04-26T01:27:02.795Z,1.64
2019-04-26T01:28:02.836Z,1.42
2019-04-26T01:29:02.898Z,1.28
2019-04-26T01:30:02.661Z,1.39
2019-04-26T01:31:02.828Z,1.29
2019-04-26T01:32:02.788Z,0.96
2019-04-26T01:33:03.541Z,1.16
2019-04-26T01:35:36.120Z,1.91
2019-04-26T01:36:13.698Z,1.25
2019-04-26T01:37:03.397Z,1.4
2019-04-26T01:38:03.635Z,1.06
2019-04-26T01:39:02.901Z,1.18
2019-04-26T01:40:03.613Z,1.06
2019-04-26T01:41:03.360Z,1.18
2019-04-26T01:42:03.647Z,1.22
2019-04-26T01:43:03.119Z,1.26
2019-04-26T01:44:03.088Z,1.49
2019-04-26T01:45:03.515Z,1.16
2019-04-26T01:46:03.287Z,0.99
2019-04-26T01:47:03.206Z,1.19
2019-04-26T01:48:02.929Z,1.05
2019-04-26T01:49:03.323Z,1.48
2019-04-26T01:50:03.382Z,1.48
2019-04-26T01:51:03.001Z,1.28
2019-04-26T01:52:03.241Z,1.28
2019-04-26T01:53:02.975Z,1.13
2019-04-26T01:54:02.803Z,1.16
2019-04-26T01:55:03.031Z,1.16
2019-04-26T01:56:02.881Z,1.06
2019-04-26T01:57:02.891Z,1.06
2019-04-26T01:58:03.135Z,1.45
2019-04-26T01:59:02.994Z,1.68
2019-04-26T02:00:03.821Z,1.06
2019-04-26T02:01:03.561Z,1.39
2019-04-26T02:02:03.824Z,1.26
2019-04-26T02:03:03.033Z,1.16
2019-04-26T02:04:03.469Z,1.01
2019-04-26T02:05:03.688Z,1.15
2019-04-26T02:06:03.582Z,1.05
2019-04-26T02:07:03.129Z,1.12
2019-04-26T02:08:03.262Z,1.15
2019-04-26T02:09:03.100Z,1.55
2019-04-26T02:10:03.231Z,1.43
2019-04-26T02:11:03.296Z,1.48
2019-04-26T02:12:02.852Z,1.37
2019-04-26T02:13:03.036Z,1.28
2019-04-26T02:14:03.513Z,1.4
2019-04-26T02:15:03.279Z,1.46
2019-04-26T02:16:03.071Z,1.78
2019-04-26T02:17:04.102Z,1.67
2019-04-26T02:18:02.689Z,1.52
2019-04-26T02:19:04.713Z,1.19
2019-04-26T02:20:04.125Z,1.27
2019-04-26T02:21:06.348Z,1.16
2019-04-26T02:22:04.302Z,1.44
2019-04-26T02:23:03.343Z,1.32
2019-04-26T02:24:04.084Z,1.72
2019-04-26T02:25:04.234Z,1.43
2019-04-26T02:26:05.930Z,1.31
2019-04-26T02:27:03.173Z,1.21
2019-04-26T02:28:03.895Z,1.31
2019-04-26T02:29:03.708Z,1.69
2019-04-26T02:30:03.946Z,1.36
2019-04-26T02:31:03.019Z,1.55
2019-04-26T02:32:03.737Z,1.4
2019-04-26T02:33:03.870Z,1.41
2019-04-26T02:34:02.963Z,1.53
2019-04-26T02:35:03.800Z,1.25
2019-04-26T02:36:03.683Z,1.94
2019-04-26T02:37:04.679Z,1.75
2019-04-26T02:38:06.391Z,1.59
2019-04-26T02:39:03.328Z,1.51
2019-04-26T02:40:03.481Z,1.51
2019-04-26T02:41:04.477Z,1.53
2019-04-26T02:42:04.147Z,1.53
2019-04-26T02:43:03.323Z,1.55
2019-04-26T02:44:03.325Z,1.55
2019-04-26T02:45:03.283Z,1.92
2019-04-26T02:46:03.240Z,1.71
2019-04-26T02:47:04.480Z,1.71
2019-04-26T02:48:02.898Z,1.45
2019-04-26T02:49:03.011Z,1.41
2019-04-26T02:50:02.946Z,1.78
2019-04-26T02:51:02.955Z,1.89
2019-04-26T02:52:03.013Z,1.59
2019-04-26T02:53:03.506Z,1.3
2019-04-26T02:54:03.540Z,1.65
2019-04-26T02:55:02.807Z,1.78
2019-04-26T02:56:03.830Z,1.41
2019-04-26T02:57:04.663Z,1.84
2019-04-26T02:58:03.425Z,1.74
2019-04-26T02:59:04.097Z,1.49
2019-04-26T03:00:02.442Z,1.69
2019-04-26T03:01:03.484Z,1.79
2019-04-26T03:02:03.397Z,1.47
2019-04-26T03:03:03.446Z,1.88
2019-04-26T03:04:03.513Z,1.74
2019-04-26T03:05:03.552Z,1.69
2019-04-26T03:06:03.338Z,1.71
2019-04-26T03:07:04.141Z,1.27
2019-04-26T03:08:03.329Z,1.62
2019-04-26T03:09:03.315Z,1.54
2019-04-26T03:10:03.253Z,1.75
2019-04-26T03:11:03.201Z,1.69
2019-04-26T03:12:03.128Z,1.6
2019-04-26T03:13:03.237Z,1.57
2019-04-26T03:14:02.954Z,1.79
2019-04-26T03:15:14.402Z,1.91
2019-04-26T03:16:03.212Z,1.49
2019-04-26T03:17:03.807Z,1.32
2019-04-26T03:18:02.781Z,1.39
2019-04-26T03:19:02.863Z,1.66
2019-04-26T03:20:03.756Z,1.52
2019-04-26T03:21:03.704Z,1.61
2019-04-26T03:22:03.619Z,1.38
2019-04-26T03:23:03.967Z,1.56
2019-04-26T03:24:03.603Z,1.45
2019-04-26T03:25:04.159Z,1.64
2019-04-26T03:26:03.657Z,1.44
2019-04-26T03:27:03.570Z,1.75
2019-04-26T03:28:03.486Z,1.65
2019-04-26T03:29:03.494Z,1.7
2019-04-26T03:30:22.034Z,1.66
2019-04-26T03:31:03.488Z,1.39
2019-04-26T03:32:03.661Z,1.39
2019-04-26T03:33:03.631Z,1.54
2019-04-26T03:34:03.569Z,1.64
2019-04-26T03:35:03.372Z,1.64
2019-04-26T03:36:03.619Z,1.62
2019-04-26T03:37:21.420Z,1.59
2019-04-26T03:38:03.333Z,1.46
2019-04-26T03:39:03.448Z,2.08
2019-04-26T03:40:03.414Z,1.52
2019-04-26T03:41:03.698Z,1.37
2019-04-26T03:42:03.171Z,1.42
2019-04-26T03:43:03.268Z,1.31
2019-04-26T03:44:03.097Z,1.99
2019-04-26T03:45:03.029Z,1.69
2019-04-26T03:46:02.961Z,1.69
2019-04-26T03:47:03.332Z,1.49
2019-04-26T03:48:03.215Z,1.77
2019-04-26T03:49:03.007Z,1.57
2019-04-26T03:50:03.002Z,1.61
2019-04-26T03:51:02.999Z,1.68
2019-04-26T03:52:02.937Z,1.56
2019-04-26T03:53:02.793Z,1.72
2019-04-26T03:54:02.958Z,1.86
2019-04-26T03:55:03.991Z,2.08
2019-04-26T03:56:02.763Z,2.11
2019-04-26T03:57:02.940Z,1.74
2019-04-26T03:58:03.727Z,2.37
2019-04-26T03:59:03.830Z,1.85
2019-04-26T04:00:02.765Z,1.96
2019-04-26T04:01:03.601Z,1.69
2019-04-26T04:02:03.392Z,1.72
2019-04-26T04:03:03.823Z,1.68
2019-04-26T04:04:03.542Z,1.66
2019-04-26T04:05:03.329Z,1.85
2019-04-26T04:06:03.342Z,1.85
2019-04-26T04:07:05.342Z,1.58
2019-04-26T04:08:03.560Z,1.7
2019-04-26T04:09:03.521Z,1.68
2019-04-26T04:10:03.517Z,1.71
2019-04-26T04:11:03.645Z,1.55
2019-04-26T04:12:12.422Z,1.97
2019-04-26T04:13:03.291Z,1.95
2019-04-26T04:14:03.303Z,1.95
2019-04-26T04:15:03.231Z,1.96
2019-04-26T04:16:03.217Z,1.92
2019-04-26T04:17:02.933Z,1.51
2019-04-26T04:18:02.869Z,2.04
2019-04-26T04:19:02.935Z,1.76
2019-04-26T04:20:02.980Z,1.99
2019-04-26T04:21:03.684Z,2.06
2019-04-26T04:22:02.741Z,1.61
2019-04-26T04:23:02.912Z,1.81
2019-04-26T04:24:03.171Z,1.81
2019-04-26T04:25:03.656Z,1.65
2019-04-26T04:26:03.619Z,1.82
2019-04-26T04:27:03.715Z,1.82
2019-04-26T04:28:03.650Z,1.81
2019-04-26T04:29:03.297Z,2.16
2019-04-26T04:30:03.540Z,2.16
2019-04-26T04:31:02.654Z,2.05
2019-04-26T04:32:03.529Z,2.52
2019-04-26T04:33:03.436Z,2.56
2019-04-26T04:34:03.564Z,2.12
2019-04-26T04:35:06.894Z,2.01
2019-04-26T04:36:03.202Z,2.06
2019-04-26T04:37:03.248Z,2.25
2019-04-26T04:38:09.994Z,1.74
2019-04-26T04:39:12.664Z,2.21
2019-04-26T04:40:03.372Z,3.79
2019-04-26T04:41:03.108Z,2.36
2019-04-26T04:42:03.388Z,1.95
2019-04-26T04:43:03.151Z,1.95
2019-04-26T04:44:03.451Z,1.96
2019-04-26T04:45:03.471Z,1.85
2019-04-26T04:46:03.313Z,2
2019-04-26T04:47:03.016Z,2.29
2019-04-26T04:48:03.224Z,2.44
2019-04-26T04:49:03.147Z,2.45
2019-04-26T04:50:02.934Z,2.34
2019-04-26T04:51:02.881Z,1.79
2019-04-26T04:52:03.838Z,2.19
2019-04-26T04:53:04.067Z,2.51
2019-04-26T04:54:03.694Z,1.95
2019-04-26T04:55:08.266Z,2.13
2019-04-26T04:56:03.844Z,2.22
2019-04-26T04:57:02.904Z,2.36
2019-04-26T04:58:03.534Z,1.82
2019-04-26T04:59:03.752Z,2.36
2019-04-26T05:00:03.992Z,2.48
2019-04-26T05:01:03.437Z,2.29
2019-04-26T05:02:03.685Z,2.3
2019-04-26T05:03:03.709Z,2.32
2019-04-26T05:04:03.539Z,2.43
2019-04-26T05:05:03.535Z,2.3
2019-04-26T05:06:08.079Z,1.94
2019-04-26T05:07:03.361Z,2.32
2019-04-26T05:08:07.219Z,2.38
2019-04-26T05:09:03.713Z,2.63
2019-04-26T05:10:03.577Z,2.63
2019-04-26T05:11:03.460Z,2.46
2019-04-26T05:12:03.469Z,2.46
2019-04-26T05:13:03.586Z,2.09
2019-04-26T05:14:03.245Z,2.7
2019-04-26T05:15:03.463Z,2.7
2019-04-26T05:16:03.154Z,2.76
2019-04-26T05:17:03.555Z,2.65
2019-04-26T05:18:03.149Z,2.29
2019-04-26T05:19:03.323Z,2.7
2019-04-26T05:20:03.262Z,2.21
2019-04-26T05:21:03.103Z,2.7
2019-04-26T05:22:02.923Z,2.29
2019-04-26T05:23:02.976Z,2.52
2019-04-26T05:24:02.994Z,2.73
2019-04-26T05:25:03.972Z,2.5
2019-04-26T05:26:03.409Z,2.22
2019-04-26T05:27:02.841Z,2.23
2019-04-26T05:28:02.967Z,2.86
2019-04-26T05:29:03.098Z,2.63
2019-04-26T05:30:03.101Z,2.78
2019-04-26T05:31:03.060Z,2.38
2019-04-26T05:32:02.921Z,3.29
2019-04-26T05:33:02.715Z,2.28
2019-04-26T05:34:02.620Z,2.54
2019-04-26T05:35:02.656Z,2.56
2019-04-26T05:36:03.884Z,2.31
2019-04-26T05:37:03.699Z,2.65
2019-04-26T05:38:03.600Z,2.36
2019-04-26T05:39:03.705Z,2.16
2019-04-26T05:40:03.348Z,2.96
2019-04-26T05:41:03.713Z,2.8
2019-04-26T05:42:03.514Z,2.18
2019-04-26T05:43:03.457Z,2.48
2019-04-26T05:44:03.517Z,2.23
2019-04-26T05:45:03.062Z,2.79
2019-04-26T05:46:03.297Z,1.94
2019-04-26T05:47:03.225Z,2.51
2019-04-26T05:48:12.018Z,2.25
2019-04-26T05:49:03.741Z,2.61
2019-04-26T05:50:03.344Z,2.56
2019-04-26T05:51:03.243Z,2.32
2019-04-26T05:52:03.005Z,2.05
2019-04-26T05:53:03.026Z,2.51
2019-04-26T05:54:02.808Z,2.25
2019-04-26T05:55:03.033Z,2.21
2019-04-26T05:56:02.980Z,1.69
2019-04-26T05:57:02.930Z,1.97
2019-04-26T05:58:03.037Z,2.07
2019-04-26T05:59:03.272Z,1.82
2019-04-26T06:00:02.883Z,1.82
2019-04-26T06:01:03.135Z,1.91
2019-04-26T06:02:03.742Z,2.09
2019-04-26T06:03:03.143Z,2.09
2019-04-26T06:04:03.697Z,1.99
2019-04-26T06:05:03.259Z,1.99
2019-04-26T06:06:05.537Z,2.51
2019-04-26T06:07:03.694Z,1.98
2019-04-26T06:08:03.876Z,2.09
2019-04-26T06:09:03.684Z,1.59
2019-04-26T06:10:03.961Z,2.62
2019-04-26T06:11:03.160Z,1.62
2019-04-26T06:12:03.668Z,2.18
2019-04-26T06:13:03.550Z,1.86
2019-04-26T06:14:03.575Z,1.95
2019-04-26T06:15:03.767Z,2.16
2019-04-26T06:16:03.490Z,1.94
2019-04-26T06:17:03.319Z,2.46
2019-04-26T06:18:03.186Z,1.89
2019-04-26T06:19:03.119Z,2.34
2019-04-26T06:20:03.164Z,1.85
2019-04-26T06:21:03.017Z,1.99
2019-04-26T06:22:03.249Z,1.47
2019-04-26T06:23:02.962Z,1.75
2019-04-26T06:24:03.374Z,1.92
2019-04-26T06:25:03.481Z,1.47
2019-04-26T06:26:04.747Z,2.31
2019-04-26T06:27:14.376Z,1.88
2019-04-26T06:28:03.267Z,1.95
2019-04-26T06:29:03.427Z,2.2
2019-04-26T06:30:03.565Z,2.09
2019-04-26T06:31:03.568Z,1.87
2019-04-26T06:32:02.736Z,2.54
2019-04-26T06:33:06.363Z,1.62
2019-04-26T06:34:03.135Z,1.99
2019-04-26T06:35:03.654Z,2.08
2019-04-26T06:36:02.972Z,1.82
2019-04-26T06:37:04.431Z,2.07
2019-04-26T06:38:04.043Z,2.05
2019-04-26T06:39:02.666Z,2.09
2019-04-26T06:40:02.938Z,1.79
2019-04-26T06:41:04.473Z,1.68
2019-04-26T06:42:03.028Z,1.88
2019-04-26T06:43:03.438Z,1.68
2019-04-26T06:44:04.800Z,1.86
2019-04-26T06:45:04.768Z,1.79
2019-04-26T06:46:03.335Z,1.95
2019-04-26T06:47:04.110Z,1.96
2019-04-26T06:48:04.041Z,2.18
2019-04-26T06:49:03.514Z,2.16
2019-04-26T06:50:03.588Z,2.16
2019-04-26T06:51:03.529Z,1.88
2019-04-26T06:52:03.427Z,1.88
2019-04-26T06:53:03.674Z,2.05
2019-04-26T06:54:03.576Z,1.8
2019-04-26T06:55:04.375Z,1.8
2019-04-26T06:56:03.154Z,2.25
2019-04-26T06:57:13.496Z,1.85
2019-04-26T06:58:03.213Z,1.85
2019-04-26T06:59:03.602Z,2.16
2019-04-26T07:00:04.471Z,1.96
2019-04-26T07:01:03.363Z,1.95
2019-04-26T07:02:03.163Z,1.86
2019-04-26T07:03:03.684Z,3.37
2019-04-26T07:04:04.235Z,2.36
2019-04-26T07:05:04.876Z,1.69
2019-04-26T07:06:02.951Z,1.76
2019-04-26T07:07:02.798Z,1.82
2019-04-26T07:08:05.225Z,1.48
2019-04-26T07:09:03.799Z,1.57
2019-04-26T07:10:04.163Z,1.88
2019-04-26T07:11:04.844Z,1.58
2019-04-26T07:12:03.653Z,1.99
2019-04-26T07:13:04.041Z,1.72
2019-04-26T07:14:03.429Z,1.99
2019-04-26T07:15:03.927Z,1.56
2019-04-26T07:16:22.614Z,1.97
2019-04-26T07:17:04.650Z,1.65
2019-04-26T07:18:04.508Z,1.69
2019-04-26T07:19:03.568Z,1.77
2019-04-26T07:20:06.038Z,2.01
2019-04-26T07:21:02.975Z,1.68
2019-04-26T07:22:04.133Z,1.56
2019-04-26T07:23:05.964Z,1.61
2019-04-26T07:24:04.010Z,2.06
2019-04-26T07:25:03.659Z,1.78
2019-04-26T07:26:03.890Z,1.75
2019-04-26T07:27:03.402Z,1.63
2019-04-26T07:28:09.169Z,1.78
2019-04-26T07:29:03.181Z,1.58
2019-04-26T07:30:05.172Z,1.76
2019-04-26T07:31:04.183Z,1.89
2019-04-26T07:32:03.419Z,1.88
2019-04-26T07:33:04.221Z,2.05
2019-04-26T07:34:03.665Z,1.56
2019-04-26T07:35:04.693Z,1.88
2019-04-26T07:36:03.875Z,2.02
2019-04-26T07:37:04.727Z,2.16
2019-04-26T07:38:03.832Z,2.16
2019-04-26T07:39:19.860Z,1.6
2019-04-26T07:40:03.556Z,1.99
2019-04-26T07:41:03.336Z,1.99
2019-04-26T07:42:03.396Z,2.09
2019-04-26T07:43:03.367Z,2.09
2019-04-26T07:44:03.903Z,1.95
2019-04-26T07:45:03.860Z,2.17
2019-04-26T07:46:04.143Z,1.96
2019-04-26T07:47:04.214Z,1.88
2019-04-26T07:48:03.277Z,1.61
2019-04-26T07:49:04.227Z,1.91
2019-04-26T07:50:05.127Z,1.62
2019-04-26T07:51:04.198Z,1.83
2019-04-26T07:52:04.267Z,1.69
2019-04-26T07:53:05.048Z,1.84
2019-04-26T07:54:05.028Z,1.89
2019-04-26T07:55:04.840Z,1.78
2019-04-26T07:56:05.031Z,1.93
2019-04-26T07:57:04.349Z,2.35
2019-04-26T07:58:05.287Z,1.82
2019-04-26T07:59:06.827Z,2.16
2019-04-26T08:00:04.371Z,1.95
2019-04-26T08:01:04.069Z,2.55
2019-04-26T08:02:05.116Z,2.09
2019-04-26T08:03:05.530Z,2.02
2019-04-26T08:04:05.066Z,2.21
2019-04-26T08:05:05.866Z,1.73
2019-04-26T08:06:05.750Z,1.83
2019-04-26T08:07:06.087Z,1.98
2019-04-26T08:08:05.381Z,2.27
2019-04-26T08:09:06.015Z,1.99
2019-04-26T08:10:05.971Z,1.98
2019-04-26T08:11:04.604Z,2.16
2019-04-26T08:12:05.753Z,2.16
2019-04-26T08:13:05.944Z,2.57
2019-04-26T08:14:04.787Z,2.46
2019-04-26T08:15:05.112Z,2.18
2019-04-26T08:16:06.652Z,2.23
2019-04-26T08:17:06.380Z,2.08
2019-04-26T08:18:05.171Z,2.78
2019-04-26T08:19:05.636Z,2.05
2019-04-26T08:20:10.736Z,2.2
2019-04-26T08:21:13.920Z,2.35
2019-04-26T08:22:21.553Z,2.3
2019-04-26T08:23:16.798Z,2.44
2019-04-26T08:24:03.206Z,3.05
2019-04-26T08:25:03.518Z,2.14
2019-04-26T08:26:02.881Z,2.59
2019-04-26T08:27:18.537Z,2.54
2019-04-26T08:28:03.730Z,2.54
2019-04-26T08:29:03.438Z,2.44
2019-04-26T08:30:14.197Z,2.45
2019-04-26T08:31:07.376Z,2.45
2019-04-26T08:32:03.425Z,2.88
2019-04-26T08:33:11.424Z,2.88
2019-04-26T08:34:03.345Z,1.94
2019-04-26T08:35:15.241Z,2.81
2019-04-26T08:36:03.232Z,3.05
2019-04-26T08:37:03.312Z,2.36
2019-04-26T08:38:13.452Z,2.63
2019-04-26T08:39:03.260Z,2.79
2019-04-26T08:40:03.300Z,2.75
2019-04-26T08:41:05.902Z,3.11
2019-04-26T08:42:03.590Z,2.73
2019-04-26T08:43:02.877Z,2.86
2019-04-26T08:44:05.683Z,2.58
2019-04-26T08:45:09.173Z,2.87
2019-04-26T08:46:03.625Z,2.75
2019-04-26T08:47:11.123Z,5.85
2019-04-26T08:48:02.964Z,3.52
2019-04-26T08:49:06.683Z,2.97
2019-04-26T08:50:02.729Z,3.38
2019-04-26T08:51:03.679Z,2.88
2019-04-26T08:52:14.848Z,3
2019-04-26T08:53:03.755Z,2.85
2019-04-26T08:54:03.707Z,3.09
2019-04-26T08:55:02.965Z,3.36
2019-04-26T08:56:03.618Z,3.76
2019-04-26T08:57:02.844Z,3.06
2019-04-26T08:58:03.612Z,2.69
2019-04-26T08:59:03.695Z,2.88
2019-04-26T09:00:03.871Z,3.29
2019-04-26T09:01:03.345Z,3.62
2019-04-26T09:02:03.327Z,3.24
2019-04-26T09:03:12.076Z,3.4
2019-04-26T09:04:03.428Z,2.82
2019-04-26T09:05:03.566Z,3.49
2019-04-26T09:06:03.418Z,3.11
2019-04-26T09:07:03.503Z,2.67
2019-04-26T09:08:04.123Z,2.96
2019-04-26T09:09:03.026Z,3.42
2019-04-26T09:10:11.371Z,3.26
2019-04-26T09:11:02.868Z,2.91
2019-04-26T09:12:08.135Z,3.14
2019-04-26T09:13:02.943Z,3.28
2019-04-26T09:14:03.296Z,3.1
2019-04-26T09:15:02.709Z,2.79
2019-04-26T09:16:03.379Z,2.79
2019-04-26T09:17:03.065Z,2.81
2019-04-26T09:18:06.924Z,2.81
2019-04-26T09:19:02.839Z,2.96
2019-04-26T09:20:09.439Z,2.96
2019-04-26T09:21:02.678Z,2.45
2019-04-26T09:22:13.569Z,2.94
2019-04-26T09:23:05.076Z,2.94
2019-04-26T09:24:03.565Z,4.32
2019-04-26T09:25:03.659Z,2.72
2019-04-26T09:26:03.569Z,2.72
2019-04-26T09:27:02.955Z,2.99
2019-04-26T09:28:03.540Z,2.66
2019-04-26T09:29:03.643Z,3.01
2019-04-26T09:30:06.265Z,2.54
2019-04-26T09:31:03.201Z,2.69
2019-04-26T09:32:03.512Z,3.12
2019-04-26T09:33:03.350Z,2.67
2019-04-26T09:34:10.295Z,2.91
2019-04-26T09:35:03.220Z,2.54
2019-04-26T09:36:03.176Z,3.09
2019-04-26T09:37:03.002Z,2.55
2019-04-26T09:38:03.232Z,2.58
2019-04-26T09:39:08.140Z,2.74
2019-04-26T09:40:10.887Z,2.48
2019-04-26T09:41:03.061Z,2.99
2019-04-26T09:42:09.566Z,2.71
2019-04-26T09:43:02.909Z,2.59
2019-04-26T09:44:02.897Z,2.75
2019-04-26T09:45:02.767Z,2.07
2019-04-26T09:46:03.848Z,2.76
2019-04-26T09:47:02.782Z,2.45
2019-04-26T09:48:03.653Z,2.11
2019-04-26T09:49:08.486Z,2.46
2019-04-26T09:50:03.556Z,2.98
2019-04-26T09:51:03.486Z,2.45
2019-04-26T09:52:03.318Z,2.35
2019-04-26T09:53:03.167Z,2.02
2019-04-26T09:54:03.309Z,2.8
2019-04-26T09:55:03.389Z,2.47
2019-04-26T09:56:03.329Z,2.11
2019-04-26T09:57:03.132Z,2.51
2019-04-26T09:58:03.218Z,2.52
2019-04-26T09:59:06.728Z,2.68
2019-04-26T10:00:02.862Z,2.73
2019-04-26T10:01:03.039Z,2.56
2019-04-26T10:02:03.056Z,2.68
2019-04-26T10:03:09.238Z,2.28
2019-04-26T10:04:03.550Z,2.43
2019-04-26T10:05:03.107Z,2.16
2019-04-26T10:06:02.873Z,2.16
2019-04-26T10:07:04.266Z,3.28
2019-04-26T10:08:03.673Z,2.47
2019-04-26T10:09:02.855Z,2.47
2019-04-26T10:10:03.879Z,2.34
2019-04-26T10:11:09.540Z,2.34
2019-04-26T10:12:03.747Z,2.25
2019-04-26T10:13:03.691Z,2.11
2019-04-26T10:14:03.665Z,2.15
2019-04-26T10:15:03.805Z,2.48
2019-04-26T10:16:04.404Z,2.18
2019-04-26T10:17:03.365Z,2.16
2019-04-26T10:18:03.550Z,2.26
2019-04-26T10:19:03.309Z,2.02
2019-04-26T10:20:03.403Z,2.17
2019-04-26T10:21:03.030Z,2.14
2019-04-26T10:22:03.031Z,2.29
2019-04-26T10:23:03.201Z,2.32
2019-04-26T10:24:01.917Z,2.46
2019-04-26T10:25:16.005Z,2.48
2019-04-26T10:26:03.141Z,1.97
2019-04-26T10:27:04.903Z,2.42
2019-04-26T10:28:02.900Z,2.88
2019-04-26T10:29:02.919Z,2.26
2019-04-26T10:30:09.265Z,2.26
2019-04-26T10:31:03.123Z,2.66
2019-04-26T10:32:03.007Z,2.34
2019-04-26T10:33:03.608Z,2.29
2019-04-26T10:34:02.997Z,1.66
2019-04-26T10:35:02.822Z,2.01
2019-04-26T10:36:03.837Z,2.24
2019-04-26T10:37:07.896Z,2.07
2019-04-26T10:38:03.512Z,2.23
2019-04-26T10:39:03.591Z,2.52
2019-04-26T10:40:03.547Z,2.24
2019-04-26T10:41:03.546Z,2.29
2019-04-26T10:42:03.624Z,2.77
2019-04-26T10:43:03.570Z,2.41
2019-04-26T10:44:02.754Z,2.61
2019-04-26T10:45:03.567Z,2.41
2019-04-26T10:46:03.449Z,2.38
2019-04-26T10:47:05.980Z,2.88
2019-04-26T10:48:02.990Z,2.16
2019-04-26T10:49:12.070Z,2.31
2019-04-26T10:50:03.166Z,2.32
2019-04-26T10:51:08.695Z,2.66
2019-04-26T10:52:02.890Z,2.53
2019-04-26T10:53:02.925Z,2.62
2019-04-26T10:54:07.622Z,2.41
2019-04-26T10:55:02.905Z,2.34
2019-04-26T10:56:03.049Z,2.34
2019-04-26T10:57:02.864Z,2.37
2019-04-26T10:58:02.949Z,2.37
2019-04-26T10:59:09.680Z,2.37
2019-04-26T11:00:03.841Z,2.64
2019-04-26T11:01:03.768Z,2.64
2019-04-26T11:02:03.650Z,2.36
2019-04-26T11:03:06.006Z,2.26
2019-04-26T11:04:03.614Z,2.32
2019-04-26T11:05:03.408Z,2.75
2019-04-26T11:06:03.289Z,2.19
2019-04-26T11:07:03.567Z,2.79
2019-04-26T11:08:03.385Z,2.74
2019-04-26T11:09:03.304Z,2.5
2019-04-26T11:10:03.352Z,2.48
2019-04-26T11:11:03.512Z,2.54
2019-04-26T11:12:03.411Z,2.65
2019-04-26T11:13:03.307Z,2.46
2019-04-26T11:14:03.009Z,2.48
2019-04-26T11:15:02.956Z,2.5
2019-04-26T11:16:08.730Z,2.76
2019-04-26T11:17:02.990Z,3.07
2019-04-26T11:18:02.892Z,2.46
2019-04-26T11:19:02.703Z,2.59
2019-04-26T11:20:10.187Z,2.6
2019-04-26T11:21:03.901Z,2.56
2019-04-26T11:22:03.767Z,2.69
2019-04-26T11:23:03.692Z,2.69
2019-04-26T11:24:03.699Z,2.89
2019-04-26T11:25:03.798Z,2.64
2019-04-26T11:26:03.353Z,2.85
2019-04-26T11:27:09.454Z,2.64
2019-04-26T11:28:03.752Z,2.51
2019-04-26T11:29:03.459Z,2.74
2019-04-26T11:30:20.505Z,3.02
2019-04-26T11:31:03.659Z,2.55
2019-04-26T11:32:04.376Z,2.99
2019-04-26T11:33:03.379Z,2.78
2019-04-26T11:34:05.834Z,2.94
2019-04-26T11:35:03.658Z,2.32
2019-04-26T11:36:07.474Z,2.37
2019-04-26T11:37:02.842Z,2.66
2019-04-26T11:38:03.192Z,3.25
2019-04-26T11:39:07.290Z,3.56
2019-04-26T11:40:03.123Z,3.19
2019-04-26T11:41:06.942Z,3.26
2019-04-26T11:42:03.163Z,3.24
2019-04-26T11:43:02.861Z,2.76
2019-04-26T11:44:03.112Z,2.89
2019-04-26T11:45:10.428Z,3.15
2019-04-26T11:46:04.941Z,3.15
2019-04-26T11:47:08.007Z,3.28
2019-04-26T11:48:03.519Z,3.28
2019-04-26T11:49:08.153Z,3.26
2019-04-26T11:50:03.413Z,3.43
2019-04-26T11:51:03.514Z,3.43
2019-04-26T11:52:04.128Z,2.89
2019-04-26T11:53:10.020Z,3.46
2019-04-26T11:54:03.702Z,3.58
2019-04-26T11:55:03.922Z,3.56
2019-04-26T11:56:05.781Z,3.56
2019-04-26T11:57:03.050Z,3.63
2019-04-26T11:58:03.075Z,3.55
2019-04-26T11:59:03.251Z,3.22
2019-04-26T12:00:06.620Z,3.21
2019-04-26T12:01:03.795Z,3.86
2019-04-26T12:02:02.969Z,3.41
2019-04-26T12:03:03.663Z,3.66
2019-04-26T12:04:03.566Z,3.67
2019-04-26T12:05:03.489Z,3.82
2019-04-26T12:06:03.814Z,3.34
2019-04-26T12:07:03.265Z,3.65
2019-04-26T12:08:03.301Z,3.62
2019-04-26T12:09:03.400Z,3.62
2019-04-26T12:10:09.598Z,3.72
2019-04-26T12:11:03.132Z,3.66
2019-04-26T12:12:05.208Z,3.02
2019-04-26T12:13:06.285Z,3.78
2019-04-26T12:14:04.277Z,3.25
2019-04-26T12:15:08.396Z,3.75
2019-04-26T12:16:02.747Z,3.78
2019-04-26T12:17:03.228Z,3.47
2019-04-26T12:18:09.519Z,4.46
2019-04-26T12:19:03.029Z,3.04
2019-04-26T12:20:03.526Z,3.38
2019-04-26T12:21:02.801Z,3.89
2019-04-26T12:22:08.132Z,3.55
2019-04-26T12:23:03.592Z,3.49
2019-04-26T12:24:03.384Z,3.62
2019-04-26T12:25:08.233Z,3.82
2019-04-26T12:26:02.620Z,3.54
2019-04-26T12:27:03.379Z,4.88
2019-04-26T12:28:07.271Z,3.92
2019-04-26T12:29:03.239Z,3.96
2019-04-26T12:30:03.683Z,3.98
2019-04-26T12:31:02.745Z,3.64
2019-04-26T12:32:03.209Z,3.72
2019-04-26T12:33:03.285Z,4.01
2019-04-26T12:34:02.985Z,4.01
2019-04-26T12:35:03.380Z,2.87
2019-04-26T12:36:03.544Z,2.87
2019-04-26T12:37:03.507Z,3.48
2019-04-26T12:38:03.428Z,3.45
2019-04-26T12:39:03.599Z,3.75
2019-04-26T12:40:03.283Z,3.11
2019-04-26T12:41:02.974Z,3.11
2019-04-26T12:42:03.064Z,3.05
2019-04-26T12:43:03.431Z,3.46
2019-04-26T12:44:03.512Z,3.42
2019-04-26T12:45:02.879Z,3.91
2019-04-26T12:46:02.697Z,2.52
2019-04-26T12:47:05.245Z,3.52
2019-04-26T12:48:02.873Z,3.05
2019-04-26T12:49:02.997Z,3.04
2019-04-26T12:50:03.103Z,2.99
2019-04-26T12:51:02.948Z,2.99
2019-04-26T12:52:03.880Z,3.05
2019-04-26T12:53:03.796Z,2.68
2019-04-26T12:54:07.723Z,2.69
2019-04-26T12:55:03.558Z,2.92
2019-04-26T12:56:03.567Z,2.36
2019-04-26T12:57:06.987Z,2.72
2019-04-26T12:58:03.473Z,2.83
2019-04-26T12:59:03.482Z,2.51
2019-04-26T13:00:03.821Z,2.98
2019-04-26T13:01:03.695Z,2.79
2019-04-26T13:02:06.219Z,2.61
2019-04-26T13:03:03.639Z,2.26
2019-04-26T13:04:03.791Z,2.32
2019-04-26T13:05:03.771Z,2.49
2019-04-26T13:06:03.417Z,2.45
2019-04-26T13:07:08.516Z,2.62
2019-04-26T13:08:03.533Z,1.92
2019-04-26T13:09:03.280Z,2.21
2019-04-26T13:10:03.463Z,2.28
2019-04-26T13:11:14.750Z,2.76
2019-04-26T13:12:03.579Z,2.74
2019-04-26T13:13:03.298Z,2.62
2019-04-26T13:14:03.587Z,2.84
2019-04-26T13:15:03.441Z,2.66
2019-04-26T13:16:03.302Z,2.66
2019-04-26T13:17:03.251Z,2.41
2019-04-26T13:18:03.494Z,2.6
2019-04-26T13:19:03.105Z,2.31
2019-04-26T13:20:03.104Z,2.16